createdAt,value
2022-09-13T00:49:50.797Z,15.20
2022-09-13T00:56:02.317Z,15.20
2022-09-13T01:02:04.955Z,15.00
2022-09-13T01:08:16.087Z,14.90
2022-09-13T01:14:21.090Z,15.00
2022-09-13T01:20:30.538Z,15.00
2022-09-13T01:27:03.353Z,15.00
2022-09-13T01:33:26.373Z,15.00
2022-09-13T01:39:47.870Z,14.90
2022-09-13T01:46:19.352Z,14.90
2022-09-13T01:52:24.641Z,14.80
2022-09-13T01:58:56.959Z,14.70
2022-09-13T02:05:05.917Z,14.60
2022-09-13T02:11:17.293Z,14.50
2022-09-13T02:17:23.704Z,14.30
2022-09-13T02:23:40.490Z,14.00
2022-09-13T02:29:46.246Z,13.80
2022-09-13T02:35:54.168Z,13.80
2022-09-13T02:42:04.629Z,13.80
2022-09-13T02:48:18.164Z,13.70
2022-09-13T02:54:30.485Z,13.70
2022-09-13T03:00:32.423Z,13.70
2022-09-13T03:06:34.217Z,13.70
2022-09-13T03:12:57.689Z,13.80
2022-09-13T03:19:19.304Z,13.80
2022-09-13T03:26:00.962Z,13.80
2022-09-13T03:32:17.051Z,13.90
2022-09-13T03:38:32.739Z,13.90
2022-09-13T03:44:38.668Z,14.00
2022-09-13T03:50:41.029Z,14.00
2022-09-13T03:56:42.897Z,14.00
2022-09-13T04:02:45.137Z,14.10
2022-09-13T04:08:47.029Z,14.00
2022-09-13T04:14:49.181Z,14.00
2022-09-13T04:20:59.504Z,14.00
2022-09-13T04:27:01.979Z,14.10
2022-09-13T04:33:03.794Z,14.10
2022-09-13T04:39:05.587Z,14.10
2022-09-13T04:45:08.206Z,14.10
2022-09-13T04:51:10.255Z,14.10
2022-09-13T04:57:12.457Z,14.10
2022-09-13T05:03:14.210Z,14.20
2022-09-13T05:09:16.108Z,14.30
2022-09-13T05:15:17.874Z,14.30
2022-09-13T05:21:20.182Z,14.30
2022-09-13T05:27:22.028Z,14.20
2022-09-13T05:33:24.491Z,14.30
2022-09-13T05:39:34.009Z,14.30
2022-09-13T05:45:45.562Z,14.40
2022-09-13T05:51:47.334Z,14.40
2022-09-13T05:57:49.987Z,14.50
2022-09-13T06:03:55.319Z,14.60
2022-09-13T06:09:58.499Z,14.70
2022-09-13T06:16:01.897Z,14.80
2022-09-13T06:22:03.707Z,15.00
2022-09-13T06:28:05.545Z,15.30
2022-09-13T06:34:07.286Z,15.50
2022-09-13T06:40:09.571Z,15.80
2022-09-13T06:46:13.859Z,16.30
2022-09-13T06:52:15.744Z,16.60
2022-09-13T06:58:17.475Z,16.80
2022-09-13T07:04:19.538Z,17.10
2022-09-13T07:10:21.313Z,17.20
2022-09-13T07:16:28.776Z,17.40
2022-09-13T07:22:30.697Z,17.70
2022-09-13T07:28:41.698Z,18.00
2022-09-13T07:34:43.484Z,18.20
2022-09-13T07:40:54.664Z,18.40
2022-09-13T07:46:56.428Z,18.60
2022-09-13T07:52:58.193Z,18.60
2022-09-13T07:59:01.960Z,19.00
2022-09-13T08:05:04.477Z,19.30
2022-09-13T08:11:06.866Z,19.40
2022-09-13T08:17:09.264Z,19.80
2022-09-13T08:23:12.528Z,19.80
2022-09-13T08:29:15.295Z,20.00
2022-09-13T08:35:17.023Z,20.60
2022-09-13T08:41:47.919Z,20.80
2022-09-13T08:47:56.475Z,21.00
2022-09-13T08:53:59.043Z,21.20
2022-09-13T09:00:20.622Z,21.20
2022-09-13T09:06:23.371Z,21.30
2022-09-13T09:12:46.153Z,21.00
2022-09-13T09:18:49.608Z,20.90
2022-09-13T09:24:55.555Z,20.80
2022-09-13T09:31:16.429Z,20.80
2022-09-13T09:37:27.619Z,21.20
2022-09-13T09:43:52.532Z,21.40
2022-09-13T09:50:14.231Z,21.30
2022-09-13T09:56:30.894Z,21.60
2022-09-13T10:02:35.059Z,22.00
2022-09-13T10:08:40.016Z,22.30
2022-09-13T10:14:44.927Z,22.30
2022-09-13T10:21:01.635Z,22.30
2022-09-13T10:27:05.323Z,22.50
2022-09-13T10:33:16.754Z,22.70
2022-09-13T10:39:21.415Z,22.90
2022-09-13T10:45:26.440Z,22.90
2022-09-13T10:51:28.105Z,23.40
2022-09-13T10:57:37.917Z,23.70
2022-09-13T11:03:56.737Z,24.00
2022-09-13T11:10:06.763Z,24.10
2022-09-13T11:16:33.047Z,24.90
2022-09-13T11:23:11.389Z,24.80
2022-09-13T11:29:13.019Z,25.00
2022-09-13T11:35:52.512Z,25.80
2022-09-13T11:42:26.188Z,26.10
2022-09-13T11:48:45.182Z,25.50
2022-09-13T11:54:59.524Z,25.20
2022-09-13T12:01:06.941Z,24.70
2022-09-13T12:07:31.860Z,24.30
2022-09-13T12:13:43.753Z,23.90
2022-09-13T12:19:47.896Z,23.50
2022-09-13T12:26:17.368Z,23.20
2022-09-13T12:32:19.822Z,22.90
2022-09-13T12:38:31.480Z,22.90
2022-09-13T12:44:39.370Z,22.90
2022-09-13T12:50:47.198Z,23.30
2022-09-13T12:56:56.739Z,23.80
2022-09-13T13:03:19.999Z,24.00
2022-09-13T13:09:42.357Z,23.80
2022-09-13T13:15:49.294Z,23.70
2022-09-13T13:21:51.804Z,23.60
2022-09-13T13:27:55.186Z,23.60
2022-09-13T13:34:02.886Z,23.60
2022-09-13T13:40:22.376Z,23.80
2022-09-13T13:46:27.544Z,23.70
2022-09-13T13:52:40.820Z,23.60
2022-09-13T13:58:51.344Z,23.50
2022-09-13T14:05:23.476Z,23.80
2022-09-13T14:11:46.633Z,23.70
2022-09-13T14:17:59.044Z,23.70
2022-09-13T14:24:17.706Z,23.70
2022-09-13T14:30:27.119Z,23.50
2022-09-13T14:36:28.897Z,23.40
2022-09-13T14:42:42.554Z,23.20
2022-09-13T14:48:52.890Z,23.10
2022-09-13T14:54:58.585Z,23.00
2022-09-13T15:01:05.392Z,23.00
2022-09-13T15:07:28.185Z,23.20
2022-09-13T15:13:30.667Z,23.50
2022-09-13T15:19:42.496Z,23.80
2022-09-13T15:25:51.421Z,24.00
2022-09-13T15:31:59.447Z,23.90
2022-09-13T15:38:14.930Z,23.90
2022-09-13T15:44:16.690Z,23.90
2022-09-13T15:50:31.116Z,23.70
2022-09-13T15:56:35.554Z,24.00
2022-09-13T16:02:37.362Z,24.10
2022-09-13T16:08:40.102Z,23.90
2022-09-13T16:14:42.044Z,23.80
2022-09-13T16:20:44.475Z,24.30
2022-09-13T16:26:46.220Z,23.80
2022-09-13T16:32:48.397Z,23.30
2022-09-13T16:38:50.168Z,23.30
2022-09-13T16:44:51.989Z,23.30
2022-09-13T16:50:56.813Z,22.60
2022-09-13T16:56:58.778Z,22.10
2022-09-13T17:03:00.600Z,21.60
2022-09-13T17:09:05.417Z,21.40
2022-09-13T17:15:07.947Z,21.10
2022-09-13T17:21:11.033Z,20.90
2022-09-13T17:27:13.012Z,20.70
2022-09-13T17:33:14.867Z,20.50
2022-09-13T17:39:16.667Z,20.30
2022-09-13T17:45:18.646Z,20.10
2022-09-13T17:51:25.856Z,19.80
2022-09-13T17:57:28.167Z,19.60
2022-09-13T18:03:31.723Z,19.50
2022-09-13T18:09:33.500Z,19.30
2022-09-13T18:15:35.373Z,19.20
2022-09-13T18:21:37.650Z,19.10
2022-09-13T18:27:39.445Z,18.90
2022-09-13T18:33:42.099Z,18.70
2022-09-13T18:39:43.973Z,18.60
2022-09-13T18:45:54.287Z,18.50
2022-09-13T18:51:56.230Z,18.40
2022-09-13T18:57:58.557Z,18.10
2022-09-13T19:04:10.999Z,17.90
2022-09-13T19:10:16.109Z,17.80
2022-09-13T19:16:20.052Z,17.60
2022-09-13T19:22:21.832Z,17.50
2022-09-13T19:28:23.639Z,17.50
2022-09-13T19:34:25.455Z,17.40
2022-09-13T19:40:27.208Z,17.30
2022-09-13T20:23:23.467Z,16.90
2022-09-13T20:29:25.608Z,16.80
2022-09-13T20:35:48.183Z,16.70
2022-09-13T20:41:50.150Z,16.60
2022-09-13T20:47:52.397Z,16.40
2022-09-13T20:54:00.343Z,16.40
2022-09-13T21:07:01.088Z,16.20
2022-09-13T21:13:03.888Z,16.20
2022-09-13T21:19:05.660Z,16.10
2022-09-13T21:25:08.142Z,16.00
2022-09-13T21:31:21.425Z,16.00
2022-09-13T21:37:23.616Z,16.00
2022-09-13T21:43:28.124Z,16.00
2022-09-13T21:49:29.838Z,16.00
2022-09-13T21:55:35.397Z,16.00
2022-09-13T22:01:39.119Z,15.90
2022-09-13T22:07:40.918Z,15.90
2022-09-13T22:13:47.596Z,15.80
2022-09-13T22:19:49.373Z,15.90
2022-09-13T22:25:52.957Z,15.90
2022-09-13T22:31:54.909Z,15.90
2022-09-13T22:37:56.643Z,15.80
2022-09-13T22:43:59.998Z,15.80
2022-09-13T22:50:01.766Z,15.80
2022-09-13T22:56:05.927Z,15.90
2022-09-13T23:02:07.671Z,15.90
2022-09-13T23:08:10.529Z,15.80
2022-09-13T23:14:14.594Z,15.80
2022-09-13T23:20:16.710Z,15.70
2022-09-13T23:26:21.443Z,15.70
2022-09-13T23:32:23.204Z,15.70
2022-09-13T23:38:25.318Z,15.50
2022-09-13T23:44:29.048Z,15.50
2022-09-13T23:50:30.817Z,15.40
2022-09-13T23:56:33.364Z,15.50
